Time;durP1;ratioP1;P1;durP2;ratioP2;P2;SDS_P1;SDS_P2;PMS_P1;PMS_P2;Temp;Humidity;BMP_temperature;BMP_pressure;BME280_temperature;BME280_humidity;BME280_pressure;Samples;Min_cycle;Max_cycle;Signal;HPM_P1;HPM_P2
2023/02/14 00:01:33;;;;;;;53.93;39.07;;;4.20;99.90;;;;;;4958209;28;20999;-70
2023/02/14 00:04:02;;;;;;;44.30;36.73;;;4.20;99.90;;;;;;4975813;28;20804;-70
2023/02/14 00:06:37;;;;;;;91.80;38.60;;;4.20;99.90;;;;;;4958221;28;20807;-70
2023/02/14 00:09:06;;;;;;;37.40;33.10;;;4.10;99.90;;;;;;4975757;28;20521;-70
2023/02/14 00:11:35;;;;;;;42.23;34.03;;;4.10;99.90;;;;;;4958073;28;20460;-70
2023/02/14 00:16:49;;;;;;;40.53;36.13;;;4.00;99.90;;;;;;4975338;28;20461;-71
2023/02/14 00:19:20;;;;;;;45.80;35.70;;;4.00;99.90;;;;;;4957954;28;20465;-71
2023/02/14 00:21:49;;;;;;;40.50;33.63;;;4.00;99.90;;;;;;4975628;28;20445;-71
2023/02/14 00:24:19;;;;;;;36.00;32.10;;;4.00;99.90;;;;;;4975245;28;20515;-71
2023/02/14 00:26:48;;;;;;;37.17;33.10;;;3.90;99.90;;;;;;4975509;28;20418;-71
2023/02/14 00:29:19;;;;;;;36.07;32.20;;;3.90;99.90;;;;;;4975089;28;21003;-71
2023/02/14 00:31:47;;;;;;;38.27;34.10;;;3.90;99.90;;;;;;4975087;28;20453;-71
2023/02/14 00:34:18;;;;;;;36.00;32.17;;;3.90;99.90;;;;;;4957802;28;20456;-71
2023/02/14 00:36:47;;;;;;;35.13;31.40;;;3.80;99.90;;;;;;4975215;28;20869;-71
2023/02/14 00:39:17;;;;;;;37.30;33.40;;;3.80;99.90;;;;;;4974899;28;20549;-71
2023/02/14 00:41:46;;;;;;;35.77;31.97;;;3.80;99.90;;;;;;4957652;28;20983;-72
2023/02/14 00:44:17;;;;;;;35.63;31.83;;;3.70;99.90;;;;;;4957658;28;20446;-72
2023/02/14 00:46:45;;;;;;;33.60;29.97;;;3.70;99.90;;;;;;4974865;28;20532;-72
2023/02/14 00:49:13;;;;;;;33.70;30.10;;;3.70;99.90;;;;;;4975306;28;20913;-72
2023/02/14 00:51:43;;;;;;;35.83;31.83;;;3.60;99.90;;;;;;4957532;28;20852;-72
2023/02/14 00:54:11;;;;;;;36.70;32.80;;;3.60;99.90;;;;;;4957431;28;20489;-72
2023/02/14 00:56:39;;;;;;;36.47;32.47;;;3.60;99.90;;;;;;4974680;28;20456;-72
2023/02/14 00:59:09;;;;;;;37.00;30.37;;;3.50;99.90;;;;;;4957573;28;20453;-72
2023/02/14 01:01:37;;;;;;;34.80;30.97;;;3.50;99.90;;;;;;4957334;28;20499;-71
2023/02/14 01:04:06;;;;;;;36.40;32.07;;;3.50;99.90;;;;;;4957217;28;20826;-72
2023/02/14 01:06:34;;;;;;;37.10;30.70;;;3.50;99.90;;;;;;4957270;28;20453;-72
2023/02/14 01:09:05;;;;;;;34.07;30.27;;;3.40;99.90;;;;;;4974466;28;20959;-72
2023/02/14 01:11:33;;;;;;;35.23;29.60;;;3.40;99.90;;;;;;4957226;28;20448;-72
2023/02/14 01:14:01;;;;;;;35.53;29.97;;;3.40;99.90;;;;;;4957047;28;20519;-72
2023/02/14 01:16:30;;;;;;;32.93;29.43;;;3.40;99.90;;;;;;4974519;28;20871;-72
2023/02/14 01:19:00;;;;;;;32.67;28.00;;;3.40;99.90;;;;;;4956977;28;20492;-72
2023/02/14 01:21:30;;;;;;;32.63;28.83;;;3.30;99.90;;;;;;4957109;28;20457;-71
2023/02/14 01:24:00;;;;;;;32.23;26.97;;;3.30;99.90;;;;;;4957019;28;20468;-72
2023/02/14 01:26:30;;;;;;;36.50;28.57;;;3.30;99.90;;;;;;4974730;28;20529;-72
2023/02/14 01:29:01;;;;;;;32.80;27.07;;;3.30;99.90;;;;;;4957051;28;20532;-72
2023/02/14 01:31:32;;;;;;;35.50;28.57;;;3.30;99.90;;;;;;4974356;28;20842;-72
2023/02/14 01:34:01;;;;;;;31.00;25.00;;;3.30;99.90;;;;;;4960046;28;20520;-72
2023/02/14 01:36:33;;;;;;;30.03;24.50;;;3.20;99.90;;;;;;4960991;28;20459;-71
2023/02/14 01:39:04;;;;;;;32.30;26.97;;;3.20;99.90;;;;;;4961076;28;20473;-71
2023/02/14 01:41:36;;;;;;;36.10;27.50;;;3.30;99.90;;;;;;4978824;28;20426;-71
2023/02/14 01:44:06;;;;;;;32.67;25.97;;;3.20;99.90;;;;;;4978483;28;20430;-71
2023/02/14 01:46:36;;;;;;;34.73;26.07;;;3.20;99.90;;;;;;4978149;28;20538;-71
2023/02/14 01:49:11;;;;;;;39.07;29.10;;;3.30;99.90;;;;;;4960780;28;20437;-71
2023/02/14 01:51:44;;;;;;;34.20;26.13;;;3.30;99.90;;;;;;4960765;28;20539;-72
2023/02/14 01:54:13;;;;;;;34.63;26.07;;;3.30;99.90;;;;;;4978319;28;20428;-71
2023/02/14 01:56:46;;;;;;;35.10;26.80;;;3.30;99.90;;;;;;4960686;28;20439;-71
2023/02/14 01:59:18;;;;;;;35.87;26.87;;;3.30;99.90;;;;;;4960462;28;20491;-72
2023/02/14 02:01:49;;;;;;;37.60;27.93;;;3.30;99.90;;;;;;4977875;28;20424;-71
2023/02/14 02:04:22;;;;;;;37.37;28.47;;;3.30;99.90;;;;;;4960513;28;21014;-71
2023/02/14 02:06:54;;;;;;;38.20;28.00;;;3.30;99.90;;;;;;4978118;28;20422;-70
2023/02/14 02:09:28;;;;;;;33.87;27.30;;;3.20;99.90;;;;;;4978068;28;20920;-71
2023/02/14 02:11:57;;;;;;;32.60;26.30;;;3.20;99.90;;;;;;4978222;28;20429;-70
2023/02/14 02:14:26;;;;;;;33.87;27.20;;;3.20;99.90;;;;;;4960133;28;20985;-71
2023/02/14 02:17:14;;;;;;;31.30;27.10;;;3.20;99.90;;;;;;4977655;28;20921;-71
2023/02/14 02:20:16;;;;;;;37.90;28.33;;;3.20;99.90;;;;;;4960078;28;20513;-70
2023/02/14 02:23:12;;;;;;;38.03;28.37;;;3.20;99.90;;;;;;4960389;28;20811;-71
2023/02/14 02:26:10;;;;;;;35.00;28.63;;;3.20;99.90;;;;;;4960107;28;20542;-71
2023/02/14 02:29:05;;;;;;;37.70;30.00;;;3.20;99.90;;;;;;4960010;28;20485;-72
2023/02/14 02:32:02;;;;;;;36.23;27.40;;;3.20;99.90;;;;;;4959995;28;20457;-71
2023/02/14 02:35:07;;;;;;;36.93;27.60;;;3.10;99.90;;;;;;4960144;28;20956;-71
2023/02/14 02:37:49;;;;;;;37.10;29.30;;;3.10;99.90;;;;;;4959833;28;20448;-72
2023/02/14 02:40:29;;;;;;;40.50;29.50;;;3.10;99.90;;;;;;4959832;28;20848;-72
2023/02/14 02:43:06;;;;;;;36.77;29.23;;;3.10;99.90;;;;;;4977159;28;20827;-71
2023/02/14 02:46:46;;;;;;;38.30;29.63;;;3.10;99.90;;;;;;4959676;28;20456;-71
2023/02/14 02:48:39;;;;;;;36.50;28.80;;;3.10;99.90;;;;;;4959635;28;20893;-71
2023/02/14 02:54:07;;;;;;;38.60;29.13;;;3.10;99.90;;;;;;4959618;28;21051;-71
2023/02/14 02:56:46;;;;;;;39.20;29.40;;;3.10;99.90;;;;;;4959520;28;20455;-71
2023/02/14 02:59:19;;;;;;;41.70;29.03;;;3.10;99.90;;;;;;4959946;28;20549;-71
2023/02/14 03:01:56;;;;;;;36.20;28.60;;;3.10;99.90;;;;;;4959458;28;20828;-71
2023/02/14 03:07:35;;;;;;;35.83;28.53;;;3.10;99.90;;;;;;4901477;29;20496;-72
2023/02/14 03:10:16;;;;;;;43.97;30.53;;;3.10;99.90;;;;;;4953967;28;21003;-71
2023/02/14 03:13:17;;;;;;;42.10;29.83;;;3.10;99.90;;;;;;4959183;28;20449;-71
2023/02/14 03:15:58;;;;;;;41.40;29.80;;;3.10;99.90;;;;;;4976967;28;20971;-71
2023/02/14 03:18:43;;;;;;;35.30;27.37;;;3.10;99.90;;;;;;4959665;28;20895;-71
2023/02/14 03:21:20;;;;;;;36.50;27.07;;;3.10;99.90;;;;;;4960439;28;20539;-71
2023/02/14 03:23:56;;;;;;;38.67;28.03;;;3.10;99.90;;;;;;4961551;28;20975;-71
2023/02/14 03:26:34;;;;;;;38.10;28.87;;;3.00;99.90;;;;;;4978932;28;20454;-71
2023/02/14 03:29:16;;;;;;;46.00;30.77;;;3.00;99.90;;;;;;4978440;28;20449;-70
2023/02/14 03:31:52;;;;;;;40.83;28.40;;;3.00;99.90;;;;;;4959371;28;20448;-71
2023/02/14 03:34:30;;;;;;;36.47;27.77;;;3.00;99.90;;;;;;4959072;28;20444;-71
2023/02/14 03:37:02;;;;;;;39.27;29.63;;;3.00;99.90;;;;;;4959009;28;21151;-71
2023/02/14 03:39:38;;;;;;;38.90;28.00;;;3.00;99.90;;;;;;4958763;28;21013;-72
2023/02/14 03:42:14;;;;;;;40.60;30.77;;;3.00;99.90;;;;;;4958944;28;20526;-71
2023/02/14 03:44:44;;;;;;;39.73;28.50;;;3.00;99.90;;;;;;4958823;28;20453;-71
2023/02/14 03:47:14;;;;;;;39.47;29.90;;;3.00;99.90;;;;;;4958643;28;20957;-71
2023/02/14 03:49:46;;;;;;;39.30;29.93;;;3.00;99.90;;;;;;4958535;28;20479;-71
2023/02/14 03:52:16;;;;;;;40.27;28.60;;;3.00;99.90;;;;;;4976438;28;20480;-71
2023/02/14 03:54:48;;;;;;;34.70;27.53;;;2.90;99.90;;;;;;4976353;28;20782;-72
2023/02/14 03:57:23;;;;;;;32.53;26.87;;;2.90;99.90;;;;;;4975395;28;20435;-71
2023/02/14 03:59:53;;;;;;;35.57;27.33;;;2.90;99.90;;;;;;4975886;28;20483;-71
2023/02/14 04:02:27;;;;;;;38.00;28.60;;;2.90;99.90;;;;;;4959143;28;20797;-71
2023/02/14 04:04:56;;;;;;;39.60;29.30;;;2.90;99.90;;;;;;4975968;28;20422;-71
2023/02/14 04:07:25;;;;;;;37.03;28.40;;;2.90;99.90;;;;;;4959047;28;20954;-71
2023/02/14 04:09:53;;;;;;;38.70;29.23;;;2.80;99.90;;;;;;4958143;28;20480;-71
2023/02/14 04:12:22;;;;;;;41.37;29.13;;;2.80;99.90;;;;;;4975471;28;20446;-71
2023/02/14 04:15:05;;;;;;;38.27;29.40;;;2.80;99.90;;;;;;4958170;28;20471;-71
2023/02/14 04:20:19;;;;;;;41.03;29.60;;;2.70;99.90;;;;;;4975504;28;20535;-71
2023/02/14 04:22:47;;;;;;;40.87;31.50;;;2.70;99.90;;;;;;4975300;28;20850;-70
2023/02/14 04:25:15;;;;;;;41.60;31.57;;;2.70;99.90;;;;;;4975260;28;20477;-70
2023/02/14 04:27:45;;;;;;;41.30;30.50;;;2.70;99.90;;;;;;4975988;28;20788;-70
2023/02/14 04:30:13;;;;;;;39.10;30.47;;;2.70;99.90;;;;;;4975213;28;20476;-70
2023/02/14 04:32:42;;;;;;;39.90;29.33;;;2.70;99.90;;;;;;4975102;28;20951;-71
2023/02/14 04:35:10;;;;;;;43.97;32.97;;;2.60;99.90;;;;;;4975038;28;21042;-70
2023/02/14 04:37:38;;;;;;;42.60;32.40;;;2.70;99.90;;;;;;4957958;28;20811;-71
2023/02/14 04:40:08;;;;;;;51.10;33.87;;;2.60;99.90;;;;;;4957530;28;20487;-71
2023/02/14 04:42:36;;;;;;;36.80;29.87;;;2.60;99.90;;;;;;4975043;28;20933;-71
2023/02/14 04:45:06;;;;;;;45.03;32.30;;;2.60;99.90;;;;;;4975150;28;21005;-71
2023/02/14 04:47:34;;;;;;;43.83;33.23;;;2.60;99.90;;;;;;4957622;28;20445;-71
2023/02/14 04:50:02;;;;;;;45.70;32.80;;;2.60;99.90;;;;;;4974954;28;20870;-71
2023/02/14 04:52:30;;;;;;;42.33;31.77;;;2.60;99.90;;;;;;4957531;28;20465;-71
2023/02/14 04:54:58;;;;;;;49.03;33.50;;;2.60;99.90;;;;;;4974722;28;20955;-71
2023/02/14 04:57:26;;;;;;;43.60;31.77;;;2.60;99.90;;;;;;4975011;28;20526;-71
2023/02/14 04:59:54;;;;;;;46.10;34.07;;;2.50;99.90;;;;;;4974570;28;20489;-71
2023/02/14 05:02:24;;;;;;;45.30;31.73;;;2.50;99.90;;;;;;4974636;28;20937;-71
2023/02/14 05:04:52;;;;;;;43.90;32.90;;;2.50;99.90;;;;;;4957315;28;20456;-71
2023/02/14 05:07:20;;;;;;;44.97;32.33;;;2.50;99.90;;;;;;4957273;28;20830;-71
2023/02/14 05:09:48;;;;;;;45.77;32.07;;;2.50;99.90;;;;;;4975046;28;20457;-71
2023/02/14 05:12:16;;;;;;;51.40;34.27;;;2.50;99.90;;;;;;4974432;28;20472;-71
2023/02/14 05:14:45;;;;;;;47.60;35.27;;;2.50;99.90;;;;;;4957073;28;20471;-71
2023/02/14 05:17:13;;;;;;;44.77;33.30;;;2.50;99.90;;;;;;4974501;28;20894;-71
2023/02/14 05:19:43;;;;;;;43.67;34.80;;;2.50;99.90;;;;;;4974580;28;20862;-70
2023/02/14 05:22:11;;;;;;;56.57;38.77;;;2.50;99.90;;;;;;4974677;28;20488;-70
2023/02/14 05:24:39;;;;;;;53.67;38.83;;;2.50;99.90;;;;;;4974414;28;20442;-70
2023/02/14 05:27:10;;;;;;;48.10;35.43;;;2.50;99.90;;;;;;4956986;28;20455;-71
2023/02/14 05:29:38;;;;;;;54.07;37.70;;;2.50;99.90;;;;;;4974320;28;20460;-71
2023/02/14 05:32:07;;;;;;;49.90;35.90;;;2.40;99.90;;;;;;4974563;28;20473;-71
2023/02/14 05:34:35;;;;;;;47.53;33.53;;;2.40;99.90;;;;;;4974326;28;20449;-71
2023/02/14 05:37:04;;;;;;;51.50;36.00;;;2.40;99.90;;;;;;4956997;28;20440;-71
2023/02/14 05:39:32;;;;;;;52.57;36.17;;;2.40;99.90;;;;;;4956815;28;20496;-71
2023/02/14 05:42:02;;;;;;;49.73;33.43;;;2.40;99.90;;;;;;4974234;28;20442;-71
2023/02/14 05:44:30;;;;;;;44.70;33.47;;;2.40;99.90;;;;;;4974483;28;20884;-71
2023/02/14 05:46:58;;;;;;;48.50;33.60;;;2.40;99.90;;;;;;4974220;28;20434;-71
2023/02/14 05:49:26;;;;;;;47.87;34.83;;;2.40;99.90;;;;;;4974101;28;20454;-70
2023/02/14 05:51:54;;;;;;;52.13;35.60;;;2.40;99.90;;;;;;4956872;28;20448;-71
2023/02/14 05:54:23;;;;;;;55.63;36.30;;;2.40;99.90;;;;;;4974666;28;20448;-71
2023/02/14 05:56:51;;;;;;;57.73;36.80;;;2.40;99.90;;;;;;4974119;28;20460;-71
2023/02/14 05:59:20;;;;;;;52.13;36.37;;;2.30;99.90;;;;;;4974730;28;20560;-71
2023/02/14 06:01:48;;;;;;;49.90;34.90;;;2.30;99.90;;;;;;4956769;28;20437;-71
2023/02/14 06:04:16;;;;;;;51.67;33.60;;;2.30;99.90;;;;;;4956813;28;21053;-71
2023/02/14 06:06:44;;;;;;;51.03;34.97;;;2.30;99.90;;;;;;4974332;28;20863;-71
2023/02/14 06:09:13;;;;;;;50.30;33.70;;;2.30;99.90;;;;;;4956644;28;20460;-71
2023/02/14 06:11:43;;;;;;;83.83;38.30;;;2.30;99.90;;;;;;4956973;28;20452;-71
2023/02/14 06:14:11;;;;;;;54.27;35.10;;;2.30;99.90;;;;;;4973970;28;20453;-71
2023/02/14 06:16:39;;;;;;;54.73;35.23;;;2.30;99.90;;;;;;4974015;28;20447;-70
2023/02/14 06:19:07;;;;;;;51.67;34.13;;;2.30;99.90;;;;;;4975456;28;20799;-71
2023/02/14 06:21:35;;;;;;;69.93;39.10;;;2.30;99.90;;;;;;4977500;28;20483;-71
2023/02/14 06:24:03;;;;;;;56.77;37.27;;;2.20;99.90;;;;;;4960155;28;20447;-71
2023/02/14 06:26:32;;;;;;;81.63;41.90;;;2.20;99.90;;;;;;4977751;28;20503;-71
2023/02/14 06:29:02;;;;;;;52.43;36.93;;;2.30;99.90;;;;;;4977650;28;20445;-71
2023/02/14 06:31:30;;;;;;;54.80;35.90;;;2.20;99.90;;;;;;4977666;28;20412;-71
2023/02/14 06:33:59;;;;;;;56.70;40.57;;;2.30;99.90;;;;;;4977576;28;20529;-71
2023/02/14 06:36:27;;;;;;;58.77;38.43;;;2.30;99.90;;;;;;4977258;28;20536;-71
2023/02/14 06:38:55;;;;;;;61.07;40.43;;;2.20;99.90;;;;;;4977405;28;20440;-71
2023/02/14 06:41:23;;;;;;;59.30;38.70;;;2.30;99.90;;;;;;4959722;28;20480;-71
2023/02/14 06:43:51;;;;;;;67.23;40.80;;;2.20;99.90;;;;;;4977424;28;20444;-72
2023/02/14 06:46:21;;;;;;;60.17;43.17;;;2.20;99.90;;;;;;4959841;28;20450;-71
2023/02/14 06:48:49;;;;;;;56.00;41.77;;;2.20;99.90;;;;;;4977636;28;20422;-71
2023/02/14 06:51:17;;;;;;;88.17;49.10;;;2.20;99.90;;;;;;4977262;28;20511;-72
2023/02/14 06:53:45;;;;;;;71.30;45.73;;;2.30;99.90;;;;;;4977474;28;20453;-72
2023/02/14 06:56:13;;;;;;;62.70;41.87;;;2.20;99.90;;;;;;4959867;28;20938;-72
2023/02/14 06:58:41;;;;;;;72.07;43.07;;;2.20;99.90;;;;;;4976928;28;20438;-72
2023/02/14 07:01:09;;;;;;;59.17;39.37;;;2.20;99.90;;;;;;4976720;28;20524;-72
2023/02/14 07:03:39;;;;;;;56.60;38.33;;;2.30;99.90;;;;;;4976764;28;20458;-72
2023/02/14 07:06:07;;;;;;;61.53;41.30;;;2.30;99.90;;;;;;4959620;28;20455;-72
2023/02/14 07:08:35;;;;;;;60.07;37.80;;;2.30;99.90;;;;;;4977212;28;20441;-72
2023/02/14 07:11:03;;;;;;;67.40;38.60;;;2.30;99.90;;;;;;4959602;28;20841;-72
2023/02/14 07:13:31;;;;;;;68.37;38.03;;;2.30;99.90;;;;;;4959528;28;20797;-72
2023/02/14 07:15:59;;;;;;;55.10;37.43;;;2.30;99.90;;;;;;4959276;28;20562;-72
2023/02/14 07:18:28;;;;;;;79.73;40.97;;;2.30;99.90;;;;;;4977340;28;20853;-72
2023/02/14 07:20:57;;;;;;;58.17;37.70;;;2.30;99.90;;;;;;4959014;28;20483;-72
2023/02/14 07:23:26;;;;;;;62.93;38.37;;;2.30;99.90;;;;;;4976421;28;20444;-71
2023/02/14 07:25:55;;;;;;;62.97;40.83;;;2.30;99.90;;;;;;4976685;28;20464;-72
2023/02/14 07:28:23;;;;;;;69.77;40.80;;;2.30;99.90;;;;;;4959029;28;20446;-71
2023/02/14 07:30:51;;;;;;;70.23;40.83;;;2.40;99.90;;;;;;4975665;28;20474;-71
2023/02/14 07:33:19;;;;;;;76.93;41.20;;;2.40;99.90;;;;;;4958876;28;20446;-71
2023/02/14 07:35:47;;;;;;;62.97;40.73;;;2.40;99.90;;;;;;4958840;28;20662;-71
2023/02/14 07:38:17;;;;;;;68.03;41.77;;;2.40;99.90;;;;;;4976131;28;20435;-71
2023/02/14 07:40:45;;;;;;;74.40;41.20;;;2.40;99.90;;;;;;4958591;28;20487;-72
2023/02/14 07:43:13;;;;;;;63.27;40.83;;;2.40;99.90;;;;;;4976043;28;20503;-72
2023/02/14 07:45:41;;;;;;;67.13;40.90;;;2.40;99.90;;;;;;4975989;28;20442;-72
2023/02/14 07:48:09;;;;;;;64.57;39.67;;;2.50;99.90;;;;;;4976475;28;20924;-72
2023/02/14 07:50:37;;;;;;;63.10;41.23;;;2.50;99.90;;;;;;4976345;28;20568;-72
2023/02/14 07:53:07;;;;;;;78.27;42.57;;;2.50;99.90;;;;;;4975759;28;20928;-72
2023/02/14 07:55:37;;;;;;;82.43;45.27;;;2.50;99.90;;;;;;4976377;28;20445;-72
2023/02/14 07:58:05;;;;;;;76.87;41.33;;;2.50;99.90;;;;;;4958462;28;20452;-72
2023/02/14 08:00:33;;;;;;;77.33;39.33;;;2.50;99.90;;;;;;4975595;28;20463;-72
2023/02/14 08:03:01;;;;;;;108.40;41.13;;;2.60;99.90;;;;;;4958688;28;20514;-71
2023/02/14 08:05:29;;;;;;;79.03;35.97;;;2.50;99.90;;;;;;4975578;28;20481;-72
2023/02/14 08:07:58;;;;;;;68.13;36.60;;;2.60;99.90;;;;;;4958600;28;20488;-72
2023/02/14 08:10:26;;;;;;;62.23;35.93;;;2.60;99.90;;;;;;4975599;28;20472;-72
2023/02/14 08:12:58;;;;;;;62.17;37.23;;;2.60;99.90;;;;;;4958250;28;20457;-72
2023/02/14 08:18:15;;;;;;;80.10;39.20;;;2.60;99.90;;;;;;4975422;28;20432;-72
2023/02/14 08:20:43;;;;;;;66.17;36.87;;;2.70;99.90;;;;;;4957887;28;20480;-72
2023/02/14 08:23:11;;;;;;;63.23;38.20;;;2.70;99.90;;;;;;4975513;28;20474;-72
2023/02/14 08:25:40;;;;;;;65.50;40.30;;;2.70;99.90;;;;;;4975556;28;20465;-72
2023/02/14 08:28:10;;;;;;;78.07;42.43;;;2.70;99.90;;;;;;4958193;28;20463;-72
2023/02/14 08:30:38;;;;;;;68.83;39.87;;;2.80;99.90;;;;;;4958034;28;20479;-72
2023/02/14 08:33:07;;;;;;;66.47;40.80;;;2.80;99.90;;;;;;4975460;28;20452;-72
2023/02/14 08:35:36;;;;;;;60.03;38.87;;;2.90;99.90;;;;;;4957729;28;20461;-72
2023/02/14 08:38:04;;;;;;;49.37;38.20;;;2.90;99.90;;;;;;4957700;28;20460;-72
2023/02/14 08:40:34;;;;;;;54.00;38.00;;;2.90;99.90;;;;;;4975493;28;20531;-72
2023/02/14 08:43:02;;;;;;;63.20;37.17;;;3.00;99.90;;;;;;4975103;28;21013;-72
2023/02/14 08:45:31;;;;;;;71.70;37.03;;;3.00;99.90;;;;;;4974971;28;20452;-72
2023/02/14 08:48:05;;;;;;;55.93;37.57;;;3.00;99.90;;;;;;4974850;28;21040;-71
2023/02/14 08:50:34;;;;;;;62.10;37.60;;;3.00;99.90;;;;;;4957401;28;20984;-71
2023/02/14 08:53:07;;;;;;;55.73;39.90;;;3.10;99.90;;;;;;4974747;28;20433;-71
2023/02/14 08:55:36;;;;;;;51.73;38.57;;;3.10;99.90;;;;;;4957608;28;20452;-71
2023/02/14 08:58:05;;;;;;;52.83;36.73;;;3.10;99.90;;;;;;4957676;28;20446;-71
2023/02/14 09:00:34;;;;;;;62.43;39.93;;;3.20;99.90;;;;;;4974691;28;21003;-71
2023/02/14 09:03:02;;;;;;;56.50;38.67;;;3.20;99.90;;;;;;4957505;28;20524;-71
2023/02/14 09:05:31;;;;;;;51.43;37.37;;;3.20;99.90;;;;;;4957295;28;20455;-71
2023/02/14 09:07:59;;;;;;;57.97;37.17;;;3.30;99.90;;;;;;4975755;28;20786;-71
2023/02/14 09:10:27;;;;;;;52.53;36.30;;;3.30;99.90;;;;;;4974553;28;20461;-71
2023/02/14 09:12:55;;;;;;;61.93;38.63;;;3.30;99.90;;;;;;4974787;28;20867;-72
2023/02/14 09:15:23;;;;;;;59.30;37.57;;;3.40;99.90;;;;;;4974850;28;20849;-71
2023/02/14 09:17:53;;;;;;;68.63;38.37;;;3.40;99.90;;;;;;4974523;28;20481;-71
2023/02/14 09:20:21;;;;;;;72.77;38.10;;;3.40;99.90;;;;;;4974704;28;20492;-71
2023/02/14 09:22:49;;;;;;;50.73;35.80;;;3.40;99.90;;;;;;4974381;28;21012;-71
2023/02/14 09:25:18;;;;;;;55.10;36.67;;;3.50;99.90;;;;;;4974964;28;20473;-71
2023/02/14 09:27:46;;;;;;;53.97;34.60;;;3.50;99.90;;;;;;4974686;28;20447;-70
2023/02/14 09:30:15;;;;;;;49.07;35.23;;;3.50;99.90;;;;;;4974259;28;20992;-71
2023/02/14 09:32:43;;;;;;;45.20;34.20;;;3.60;99.90;;;;;;4974625;28;20857;-71
2023/02/14 09:35:12;;;;;;;55.70;34.43;;;3.60;99.90;;;;;;4957025;28;20454;-71
2023/02/14 09:40:26;;;;;;;45.17;34.00;;;3.70;99.90;;;;;;4974487;28;20467;-71
2023/02/14 09:43:04;;;;;;;45.73;33.10;;;3.70;99.90;;;;;;4974705;28;20869;-71
2023/02/14 09:45:33;;;;;;;56.33;35.40;;;3.70;99.90;;;;;;4956954;28;20939;-71
2023/02/14 09:48:05;;;;;;;47.67;33.90;;;3.80;99.90;;;;;;4974469;28;20947;-71
2023/02/14 09:50:46;;;;;;;41.97;33.07;;;3.80;99.90;;;;;;4974400;28;20481;-71
2023/02/14 09:53:22;;;;;;;42.63;34.13;;;3.80;99.90;;;;;;4974466;28;20434;-71
2023/02/14 09:56:00;;;;;;;58.70;34.63;;;3.90;99.90;;;;;;4978360;28;20433;-71
2023/02/14 09:58:33;;;;;;;53.83;34.03;;;3.90;99.90;;;;;;4960657;28;20540;-71
2023/02/14 10:01:09;;;;;;;44.73;34.33;;;4.00;99.90;;;;;;4978464;28;20821;-71
2023/02/14 10:04:06;;;;;;;50.77;35.37;;;4.00;99.90;;;;;;4978380;28;20806;-71
2023/02/14 10:06:56;;;;;;;48.37;34.73;;;4.00;99.90;;;;;;4962560;28;20459;-71
2023/02/14 10:09:54;;;;;;;42.33;34.27;;;4.10;99.90;;;;;;4960423;28;20477;-71
2023/02/14 10:12:26;;;;;;;47.90;34.03;;;4.20;99.90;;;;;;4960443;28;20445;-71
2023/02/14 10:14:57;;;;;;;48.63;34.60;;;4.20;99.90;;;;;;4977677;28;20460;-71
2023/02/14 10:17:36;;;;;;;46.83;35.47;;;4.20;99.90;;;;;;4977987;28;20441;-71
2023/02/14 10:20:14;;;;;;;44.03;34.50;;;4.30;99.90;;;;;;4977898;28;20461;-71
2023/02/14 10:22:50;;;;;;;45.20;36.27;;;4.30;99.90;;;;;;4977510;28;20808;-71
2023/02/14 10:25:22;;;;;;;53.27;36.17;;;4.40;99.90;;;;;;4977757;28;21031;-71
2023/02/14 10:27:53;;;;;;;46.20;36.33;;;4.40;99.90;;;;;;4960213;28;20450;-71
2023/02/14 10:30:23;;;;;;;41.33;35.80;;;4.50;99.90;;;;;;4977619;28;21023;-71
2023/02/14 10:32:59;;;;;;;40.90;36.40;;;4.50;99.90;;;;;;4977913;28;20477;-71
2023/02/14 10:35:43;;;;;;;48.13;39.33;;;4.60;99.90;;;;;;4977880;28;20944;-71
2023/02/14 10:38:23;;;;;;;45.20;38.93;;;4.70;99.90;;;;;;4977597;28;20418;-71
2023/02/14 10:41:23;;;;;;;42.03;37.40;;;4.80;99.90;;;;;;4977561;28;20460;-71
2023/02/14 10:44:01;;;;;;;40.77;36.33;;;4.80;99.90;;;;;;4960088;28;20468;-71
2023/02/14 10:46:39;;;;;;;43.33;36.53;;;4.90;99.90;;;;;;4977584;28;20425;-71
2023/02/14 10:49:24;;;;;;;41.17;36.40;;;4.90;99.90;;;;;;4977328;28;20429;-71
2023/02/14 10:51:57;;;;;;;41.73;36.10;;;5.00;99.90;;;;;;4976944;28;20917;-71
2023/02/14 10:54:28;;;;;;;42.23;37.63;;;5.00;99.90;;;;;;4977354;28;20903;-71
2023/02/14 10:57:01;;;;;;;40.33;36.10;;;5.00;99.90;;;;;;4977287;28;20771;-71
2023/02/14 10:59:34;;;;;;;40.60;36.20;;;5.00;99.90;;;;;;4959818;28;20474;-71
2023/02/14 11:02:03;;;;;;;42.00;37.67;;;5.10;99.90;;;;;;4976857;28;20901;-71
2023/02/14 11:04:32;;;;;;;42.60;38.07;;;5.10;99.90;;;;;;4976395;28;20475;-71
2023/02/14 11:07:00;;;;;;;41.77;37.23;;;5.10;99.90;;;;;;4958448;28;20504;-71
2023/02/14 11:09:30;;;;;;;39.97;35.73;;;5.20;99.90;;;;;;4959351;28;20470;-71
2023/02/14 11:12:00;;;;;;;42.53;37.53;;;5.20;99.90;;;;;;4976721;28;20871;-71
2023/02/14 11:14:31;;;;;;;45.33;40.57;;;5.30;99.90;;;;;;4976654;28;20504;-72
2023/02/14 11:17:00;;;;;;;45.10;40.40;;;5.30;99.90;;;;;;4976810;28;20841;-72
2023/02/14 11:19:30;;;;;;;43.70;39.13;;;5.30;99.90;;;;;;4976483;28;20464;-72
2023/02/14 11:22:03;;;;;;;42.13;37.77;;;5.40;99.90;;;;;;4976905;28;20434;-72
2023/02/14 11:24:35;;;;;;;42.97;38.43;;;5.40;99.90;;;;;;4976644;28;20468;-72
2023/02/14 11:27:06;;;;;;;45.27;40.50;;;5.50;99.90;;;;;;4976683;28;20901;-72
2023/02/14 11:29:42;;;;;;;44.87;39.97;;;5.50;99.90;;;;;;4976304;28;20462;-72
2023/02/14 11:32:15;;;;;;;44.50;39.90;;;5.60;99.90;;;;;;4959051;28;20442;-72
2023/02/14 11:34:47;;;;;;;47.17;42.40;;;5.60;99.90;;;;;;4976525;28;20430;-71
2023/02/14 11:37:26;;;;;;;46.23;41.70;;;5.60;99.90;;;;;;4976161;28;20945;-71
2023/02/14 11:39:59;;;;;;;43.80;39.40;;;5.70;99.90;;;;;;4976576;28;20454;-72
2023/02/14 11:42:38;;;;;;;42.90;38.60;;;5.80;99.90;;;;;;4958749;28;20449;-72
2023/02/14 11:45:07;;;;;;;42.60;38.20;;;5.90;99.90;;;;;;4976419;28;20417;-72
2023/02/14 11:47:40;;;;;;;41.80;37.57;;;5.90;99.90;;;;;;4976033;28;20457;-72
2023/02/14 11:50:22;;;;;;;40.93;36.73;;;5.90;99.90;;;;;;4976031;28;20457;-71
2023/02/14 11:52:52;;;;;;;42.33;38.03;;;6.00;99.90;;;;;;4975992;28;20426;-71
2023/02/14 11:55:28;;;;;;;38.90;35.00;;;6.00;99.90;;;;;;4958754;28;20976;-71
2023/02/14 11:57:57;;;;;;;41.57;37.57;;;6.10;99.90;;;;;;4976405;28;20442;-71
2023/02/14 12:00:26;;;;;;;39.47;35.57;;;6.10;99.90;;;;;;4975734;28;20465;-71
2023/02/14 12:02:56;;;;;;;40.83;36.97;;;6.20;99.90;;;;;;4975855;28;20480;-71
2023/02/14 12:05:29;;;;;;;38.07;34.17;;;6.30;99.90;;;;;;4958230;28;20544;-71
2023/02/14 12:07:59;;;;;;;39.77;35.87;;;6.30;99.90;;;;;;4975898;28;20792;-71
2023/02/14 12:10:30;;;;;;;39.83;36.03;;;6.30;99.90;;;;;;4976092;28;20484;-71
2023/02/14 12:13:01;;;;;;;39.27;35.27;;;6.40;99.90;;;;;;4958144;28;20449;-72
2023/02/14 12:15:36;;;;;;;40.40;36.40;;;6.50;99.90;;;;;;4975721;28;20430;-71
2023/02/14 12:18:39;;;;;;;37.63;34.03;;;6.50;99.90;;;;;;4975315;28;20456;-71
2023/02/14 12:21:19;;;;;;;38.50;34.83;;;6.60;99.90;;;;;;4967984;28;20992;-71
2023/02/14 12:23:58;;;;;;;38.50;34.70;;;6.60;99.90;;;;;;4958087;28;20970;-71
2023/02/14 12:26:30;;;;;;;39.80;35.73;;;6.70;99.90;;;;;;4975586;28;20422;-71
2023/02/14 12:29:08;;;;;;;37.40;33.90;;;6.70;99.90;;;;;;4975862;28;20425;-71
2023/02/14 12:31:36;;;;;;;37.50;33.80;;;6.80;99.90;;;;;;4975522;28;20438;-71
2023/02/14 12:34:05;;;;;;;37.40;33.50;;;6.90;99.90;;;;;;4957781;28;20514;-72
2023/02/14 12:36:56;;;;;;;38.47;34.63;;;6.90;99.90;;;;;;4975189;28;20435;-71
2023/02/14 12:39:35;;;;;;;36.77;33.27;;;7.00;99.90;;;;;;4975205;28;20463;-71
2023/02/14 12:42:18;;;;;;;36.10;32.70;;;7.10;99.90;;;;;;4975390;28;20430;-71
2023/02/14 12:44:57;;;;;;;36.43;32.93;;;7.10;99.90;;;;;;4975186;28;20462;-71
2023/02/14 12:47:39;;;;;;;34.90;31.60;;;7.20;99.90;;;;;;4957853;28;20445;-71
2023/02/14 12:50:27;;;;;;;33.10;29.90;;;7.20;99.90;;;;;;4975176;28;20479;-71
2023/02/14 12:53:28;;;;;;;35.20;31.70;;;7.30;99.90;;;;;;4975209;28;20426;-71
2023/02/14 12:56:06;;;;;;;32.53;29.50;;;7.40;99.90;;;;;;4971314;28;20450;-71
2023/02/14 12:58:49;;;;;;;32.07;28.97;;;7.40;99.90;;;;;;4974873;28;20437;-71
2023/02/14 13:01:52;;;;;;;32.90;29.77;;;7.50;99.90;;;;;;4975130;28;20456;-71
2023/02/14 13:04:54;;;;;;;30.67;27.67;;;7.60;99.90;;;;;;4973026;28;20656;-71
2023/02/14 13:07:39;;;;;;;31.90;28.90;;;7.60;99.90;;;;;;4953760;28;20454;-72
2023/02/14 13:10:19;;;;;;;31.97;28.87;;;7.70;99.90;;;;;;4957246;28;20844;-72
2023/02/14 13:12:55;;;;;;;31.80;28.90;;;7.80;99.90;;;;;;4957164;28;20445;-72
2023/02/14 13:15:34;;;;;;;29.00;26.10;;;7.80;99.90;;;;;;4957446;28;20498;-71
2023/02/14 13:18:12;;;;;;;30.27;27.50;;;7.90;99.90;;;;;;4974815;28;20428;-71
2023/02/14 13:20:47;;;;;;;29.97;27.17;;;8.00;99.90;;;;;;4974529;28;20460;-71